createdAt,value
2018-01-22T00:01:29.029Z,29.87
2018-01-22T00:03:56.995Z,34.60
2018-01-22T00:06:32.371Z,36.88
2018-01-22T00:09:02.327Z,31.73
2018-01-22T00:11:30.341Z,30.62
2018-01-22T00:14:00.295Z,31.27
2018-01-22T00:16:28.331Z,41.70
2018-01-22T00:19:04.230Z,31.00
2018-01-22T00:21:35.573Z,32.05
2018-01-22T00:24:05.615Z,37.83
2018-01-22T00:26:34.406Z,34.05
2018-01-22T00:29:09.085Z,30.05
2018-01-22T00:31:39.022Z,36.80
2018-01-22T00:34:09.910Z,29.60
2018-01-22T00:36:39.666Z,32.83
2018-01-22T00:39:12.962Z,30.73
2018-01-22T00:41:41.942Z,33.53
2018-01-22T00:44:09.962Z,39.13
2018-01-22T00:46:38.906Z,33.40
2018-01-22T00:49:12.314Z,30.75
2018-01-22T00:51:41.282Z,31.17
2018-01-22T00:54:13.974Z,40.40
2018-01-22T00:56:46.750Z,35.58
2018-01-22T00:59:15.730Z,42.60
2018-01-22T01:01:43.794Z,40.85
2018-01-22T01:04:11.810Z,42.88
2018-01-22T01:06:40.590Z,34.78
2018-01-22T01:09:11.298Z,35.65
2018-01-22T01:11:39.390Z,40.83
2018-01-22T01:14:07.402Z,36.40
2018-01-22T01:16:35.426Z,38.80
2018-01-22T01:19:07.898Z,38.70
2018-01-22T01:21:36.866Z,39.05
2018-01-22T01:24:05.862Z,41.60
2018-01-22T01:26:34.850Z,51.40
2018-01-22T01:29:03.846Z,40.28
2018-01-22T01:31:39.280Z,38.75
2018-01-22T01:34:10.746Z,32.58
2018-01-22T01:36:40.763Z,28.65
2018-01-22T01:39:13.282Z,33.05
2018-01-22T01:41:43.254Z,26.95
2018-01-22T01:44:13.293Z,36.42
2018-01-22T01:46:46.287Z,31.42
2018-01-22T01:49:19.162Z,32.30
2018-01-22T01:51:48.000Z,28.70
2018-01-22T01:54:16.010Z,26.67
2018-01-22T01:56:44.986Z,36.17
2018-01-22T01:59:16.946Z,37.70
2018-01-22T02:01:45.942Z,37.95
2018-01-22T02:04:14.942Z,29.12
2018-01-22T02:06:46.174Z,41.33
2018-01-22T02:09:14.198Z,32.65
2018-01-22T02:11:44.074Z,41.17
2018-01-22T02:14:13.046Z,34.03
2018-01-22T02:16:42.046Z,46.88
2018-01-22T02:19:13.386Z,42.20
2018-01-22T02:21:47.201Z,34.70
2018-01-22T02:24:16.190Z,40.22
2018-01-22T02:26:49.994Z,35.20
2018-01-22T02:29:18.018Z,49.50
2018-01-22T02:31:46.042Z,44.97
2018-01-22T02:34:16.054Z,41.95
2018-01-22T02:36:47.902Z,41.72
2018-01-22T02:39:26.717Z,29.37
2018-01-22T02:41:59.346Z,33.08
2018-01-22T02:44:28.145Z,38.40
2018-01-22T02:47:01.906Z,35.88
2018-01-22T02:49:31.926Z,35.40
2018-01-22T02:51:59.950Z,41.25
2018-01-22T02:54:27.961Z,30.90
2018-01-22T02:56:59.334Z,33.08
2018-01-22T02:59:28.118Z,35.97
2018-01-22T03:02:01.278Z,31.20
2018-01-22T03:04:33.070Z,34.70
2018-01-22T03:07:01.862Z,37.35
2018-01-22T03:09:35.426Z,37.45
2018-01-22T03:12:03.486Z,34.35
2018-01-22T03:14:33.433Z,33.38
2018-01-22T03:17:01.446Z,33.67
2018-01-22T03:19:31.385Z,33.58
2018-01-22T03:22:02.439Z,29.40
2018-01-22T03:24:31.425Z,33.17
2018-01-22T03:26:59.453Z,27.27
2018-01-22T03:29:33.753Z,27.30
2018-01-22T03:32:10.700Z,28.58
2018-01-22T03:34:46.168Z,24.48
2018-01-22T03:37:29.905Z,22.13
2018-01-22T03:40:06.941Z,20.10
2018-01-22T03:42:34.962Z,23.73
2018-01-22T03:45:09.610Z,17.33
2018-01-22T03:47:39.565Z,15.60
2018-01-22T03:50:07.589Z,22.45
2018-01-22T03:52:35.609Z,22.85
2018-01-22T03:55:03.621Z,20.10
2018-01-22T03:57:39.917Z,19.27
2018-01-22T04:00:18.633Z,17.95
2018-01-22T04:03:06.673Z,21.12
2018-01-22T04:05:37.737Z,20.85
2018-01-22T04:08:06.753Z,17.42
2018-01-22T04:10:41.253Z,25.00
2018-01-22T04:13:10.197Z,18.98
2018-01-22T04:15:41.541Z,20.65
2018-01-22T04:18:10.489Z,18.00
2018-01-22T04:20:42.341Z,22.25
2018-01-22T04:23:10.397Z,24.48
2018-01-22T04:25:38.405Z,20.77
2018-01-22T04:28:10.957Z,24.90
2018-01-22T04:30:44.037Z,17.98
2018-01-22T04:33:12.104Z,19.55
2018-01-22T04:35:44.689Z,27.48
2018-01-22T04:38:13.713Z,31.33
2018-01-22T04:40:43.496Z,26.20
2018-01-22T04:43:18.507Z,25.12
2018-01-22T04:45:46.529Z,23.67
2018-01-22T04:48:23.172Z,18.62
2018-01-22T04:50:52.097Z,24.30
2018-01-22T04:53:21.825Z,22.87
2018-01-22T04:55:51.781Z,23.48
2018-01-22T04:58:24.772Z,24.15
2018-01-22T05:00:52.793Z,29.40
2018-01-22T05:03:20.849Z,24.85
2018-01-22T05:05:55.085Z,25.77
2018-01-22T05:08:25.897Z,32.55
2018-01-22T05:10:56.901Z,32.88
2018-01-22T05:13:49.613Z,25.55
2018-01-22T05:16:17.841Z,29.85
2018-01-22T05:18:46.901Z,27.73
2018-01-22T05:21:14.973Z,27.50
2018-01-22T05:23:44.161Z,24.87
2018-01-22T05:26:13.005Z,26.48
2018-01-22T05:28:41.172Z,23.30
2018-01-22T05:31:13.620Z,22.30
2018-01-22T05:33:42.616Z,23.90
2018-01-22T05:36:16.453Z,29.70
2018-01-22T05:38:48.183Z,21.70
2018-01-22T05:41:17.201Z,21.10
2018-01-22T05:46:39.797Z,22.87
2018-01-22T05:49:09.737Z,28.10
2018-01-22T05:51:41.700Z,20.52
2018-01-22T05:54:09.741Z,20.15
2018-01-22T05:56:37.781Z,21.52
2018-01-22T05:59:13.392Z,22.62
2018-01-22T06:01:41.409Z,19.30
2018-01-22T06:04:14.157Z,19.02
2018-01-22T06:06:47.732Z,19.77
2018-01-22T06:09:26.425Z,16.27
2018-01-22T06:11:57.710Z,19.90
2018-01-22T06:14:27.728Z,22.83
2018-01-22T06:16:56.708Z,17.45
2018-01-22T06:19:32.156Z,18.98
2018-01-22T06:22:01.140Z,16.12
2018-01-22T06:24:36.776Z,17.15
2018-01-22T06:27:04.789Z,18.73
2018-01-22T06:29:42.397Z,17.98
2018-01-22T06:32:19.440Z,18.92
2018-01-22T06:34:48.464Z,15.80
2018-01-22T06:37:18.240Z,20.37
2018-01-22T06:39:46.260Z,19.25
2018-01-22T06:42:18.984Z,21.60
2018-01-22T06:44:47.012Z,20.48
2018-01-22T06:47:15.970Z,23.62
2018-01-22T06:49:47.712Z,18.62
2018-01-22T06:52:22.516Z,21.90
2018-01-22T06:54:51.536Z,18.40
2018-01-22T06:57:20.516Z,26.48
2018-01-22T06:59:58.116Z,15.85
2018-01-22T07:02:27.128Z,22.65
2018-01-22T07:04:58.964Z,14.77
2018-01-22T07:07:40.112Z,20.00
2018-01-22T07:10:10.064Z,21.90
2018-01-22T07:12:38.088Z,25.10
2018-01-22T07:15:07.236Z,18.73
2018-01-22T07:17:35.268Z,20.62
2018-01-22T07:20:05.208Z,22.13
2018-01-22T07:22:34.212Z,21.98
2018-01-22T07:25:04.224Z,21.67
2018-01-22T07:27:42.912Z,22.33
2018-01-22T07:30:14.324Z,16.67
2018-01-22T07:32:43.112Z,23.83
2018-01-22T07:35:12.887Z,18.90
2018-01-22T07:37:44.856Z,16.80
2018-01-22T07:40:13.841Z,20.55
2018-01-22T07:42:42.831Z,20.52
2018-01-22T07:45:10.852Z,19.05
2018-01-22T07:47:38.880Z,16.85
2018-01-22T07:50:06.900Z,21.12
2018-01-22T07:52:38.972Z,20.48
2018-01-22T07:55:07.888Z,19.40
2018-01-22T07:57:44.364Z,18.23
2018-01-22T08:00:15.025Z,16.17
2018-01-22T08:02:45.048Z,18.02
2018-01-22T08:05:13.832Z,15.88
2018-01-22T08:07:46.016Z,20.75
2018-01-22T08:10:14.960Z,16.80
2018-01-22T08:12:42.988Z,21.08
2018-01-22T08:15:11.011Z,20.80
2018-01-22T08:17:40.919Z,16.67
2018-01-22T08:20:12.222Z,19.77
2018-01-22T08:22:42.884Z,16.08
2018-01-22T08:25:11.436Z,17.25
2018-01-22T08:27:43.531Z,19.40
2018-01-22T08:30:11.556Z,16.95
2018-01-22T08:32:46.671Z,21.60
2018-01-22T08:35:17.367Z,12.40
2018-01-22T08:37:48.935Z,17.60
2018-01-22T08:40:16.951Z,11.35
2018-01-22T08:42:46.919Z,17.05
2018-01-22T08:45:18.159Z,16.35
2018-01-22T08:47:47.143Z,14.02
2018-01-22T08:50:16.065Z,14.23
2018-01-22T08:52:46.760Z,13.35
2018-01-22T08:55:15.751Z,16.25
2018-01-22T08:57:44.655Z,11.95
2018-01-22T09:00:14.659Z,13.13
2018-01-22T09:02:42.684Z,12.80
2018-01-22T09:05:13.379Z,11.50
2018-01-22T09:07:46.649Z,10.80
2018-01-22T09:10:23.004Z,14.35
2018-01-22T09:12:51.011Z,11.70
2018-01-22T09:15:19.019Z,9.88
2018-01-22T09:17:47.027Z,12.37
2018-01-22T09:20:17.055Z,8.73
2018-01-22T09:22:48.735Z,8.98
2018-01-22T09:25:18.507Z,7.95
2018-01-22T09:27:48.543Z,8.88
2018-01-22T09:30:25.063Z,6.85
2018-01-22T09:32:53.076Z,10.57
2018-01-22T09:35:22.983Z,6.32
2018-01-22T09:37:50.987Z,9.23
2018-01-22T09:40:19.783Z,6.57
2018-01-22T09:42:50.571Z,9.20
2018-01-22T09:45:19.563Z,7.75
2018-01-22T09:47:47.563Z,7.55
2018-01-22T09:50:19.603Z,9.02
2018-01-22T09:52:47.599Z,8.57
2018-01-22T09:55:24.627Z,11.70
2018-01-22T09:57:57.655Z,9.18
2018-01-22T10:00:30.315Z,8.75
2018-01-22T10:02:59.303Z,9.75
2018-01-22T10:05:31.975Z,8.07
2018-01-22T10:08:00.967Z,9.80
2018-01-22T10:10:32.699Z,8.77
2018-01-22T10:13:00.703Z,7.82
2018-01-22T10:15:28.755Z,8.13
2018-01-22T10:18:00.121Z,11.38
2018-01-22T10:20:29.011Z,9.32
2018-01-22T10:22:57.011Z,9.75
2018-01-22T10:25:26.775Z,10.80
2018-01-22T10:27:55.795Z,11.30
2018-01-22T10:30:27.527Z,11.18
2018-01-22T10:32:57.479Z,9.38
2018-01-22T10:35:26.379Z,12.15
2018-01-22T10:37:55.151Z,11.02
2018-01-22T10:40:30.775Z,11.85
2018-01-22T10:42:58.775Z,10.43
2018-01-22T10:45:28.555Z,10.27
2018-01-22T10:47:59.091Z,9.85
2018-01-22T10:50:37.039Z,12.37
2018-01-22T10:53:09.019Z,10.43
2018-01-22T10:55:36.988Z,11.30
2018-01-22T10:58:06.891Z,10.93
2018-01-22T11:00:43.063Z,12.68
2018-01-22T11:03:13.272Z,10.20
2018-01-22T11:05:49.687Z,9.70
2018-01-22T11:08:17.699Z,9.60
2018-01-22T11:10:49.555Z,9.65
2018-01-22T11:13:26.051Z,8.95
2018-01-22T11:16:09.207Z,9.35
2018-01-22T11:18:42.846Z,9.45
2018-01-22T11:21:15.686Z,8.65
2018-01-22T11:23:50.271Z,9.40
2018-01-22T11:26:28.195Z,8.45
2018-01-22T11:29:04.031Z,9.57
2018-01-22T11:31:32.039Z,8.50
2018-01-22T11:34:00.047Z,9.32
2018-01-22T11:36:34.899Z,9.40
2018-01-22T11:39:03.807Z,9.35
2018-01-22T11:41:46.383Z,9.10
2018-01-22T11:44:21.304Z,8.20
2018-01-22T11:46:50.080Z,8.55
2018-01-22T11:49:28.651Z,8.80
2018-01-22T11:51:59.911Z,8.48
2018-01-22T11:54:27.914Z,8.15
2018-01-22T11:56:56.719Z,8.02
2018-01-22T11:59:28.310Z,9.77
2018-01-22T12:01:56.314Z,9.98
2018-01-22T12:04:29.058Z,9.10
2018-01-22T12:07:07.662Z,8.38
2018-01-22T12:09:42.594Z,8.23
2018-01-22T12:12:11.606Z,8.10
2018-01-22T12:14:43.465Z,8.30
2018-01-22T12:17:17.967Z,9.20
2018-01-22T12:19:45.966Z,8.25
2018-01-22T12:22:13.978Z,7.93
2018-01-22T12:24:49.994Z,9.80
2018-01-22T12:27:36.478Z,9.07
2018-01-22T12:30:10.512Z,8.93
2018-01-22T12:32:43.730Z,8.23
2018-01-22T12:35:19.334Z,9.43
2018-01-22T12:37:47.326Z,8.63
2018-01-22T12:40:20.606Z,10.20
2018-01-22T12:42:49.214Z,9.10
2018-01-22T12:45:24.712Z,9.77
2018-01-22T12:48:04.026Z,9.85
2018-01-22T12:50:32.082Z,10.30
2018-01-22T12:53:00.090Z,8.27
2018-01-22T12:55:33.798Z,9.68
2018-01-22T12:58:03.806Z,8.85
2018-01-22T13:00:35.466Z,8.00
2018-01-22T13:03:10.334Z,9.60
2018-01-22T13:05:42.270Z,8.50
2018-01-22T13:08:10.274Z,8.35
2018-01-22T13:10:48.229Z,7.82
2018-01-22T13:13:16.246Z,8.13
2018-01-22T13:15:49.602Z,8.40
2018-01-22T13:18:18.578Z,7.68
2018-01-22T13:20:47.434Z,9.70
2018-01-22T13:23:15.426Z,9.00
2018-01-22T13:25:43.438Z,8.55
2018-01-22T13:28:14.558Z,9.73
2018-01-22T13:30:42.582Z,9.65
2018-01-22T13:33:13.818Z,8.52
2018-01-22T13:35:43.578Z,9.98
2018-01-22T13:38:24.694Z,7.80
2018-01-22T13:41:00.126Z,7.45
2018-01-22T13:43:35.726Z,8.90
2018-01-22T13:46:13.610Z,7.28
2018-01-22T13:48:51.254Z,7.65
2018-01-22T13:51:26.026Z,8.43
2018-01-22T13:53:54.930Z,7.80
2018-01-22T13:56:23.834Z,8.57
2018-01-22T13:58:52.829Z,8.52
2018-01-22T14:01:26.554Z,7.95
2018-01-22T14:03:54.554Z,8.35
2018-01-22T14:06:33.204Z,7.90
2018-01-22T14:09:04.191Z,7.37
2018-01-22T14:11:32.174Z,8.35
2018-01-22T14:14:05.737Z,7.50
2018-01-22T14:16:50.854Z,7.22
2018-01-22T14:19:24.094Z,8.45
2018-01-22T14:21:52.750Z,7.22
2018-01-22T14:24:24.954Z,7.53
2018-01-22T14:26:52.958Z,7.60
2018-01-22T14:29:36.582Z,6.85
2018-01-22T14:32:09.878Z,7.95
2018-01-22T14:34:37.890Z,8.93
2018-01-22T14:37:06.806Z,8.95
2018-01-22T14:39:50.937Z,10.05
2018-01-22T14:42:25.414Z,9.35
2018-01-22T14:44:55.306Z,10.80
2018-01-22T14:47:25.346Z,8.60
2018-01-22T14:49:55.141Z,9.88
2018-01-22T14:52:26.523Z,11.55
2018-01-22T14:54:57.293Z,10.75
2018-01-22T14:57:31.238Z,11.25
2018-01-22T15:00:04.974Z,12.80
2018-01-22T15:02:33.902Z,10.88
2018-01-22T15:05:12.793Z,13.25
2018-01-22T15:07:40.841Z,12.80
2018-01-22T15:10:18.093Z,15.38
2018-01-22T15:12:49.038Z,15.32
2018-01-22T15:15:29.460Z,13.62
2018-01-22T15:18:16.222Z,13.25
2018-01-22T15:20:46.937Z,14.48
2018-01-22T15:26:09.333Z,17.27
2018-01-22T15:28:50.213Z,24.87
2018-01-22T15:31:20.133Z,12.50
2018-01-22T15:33:48.153Z,16.00
2018-01-22T15:36:19.709Z,15.68
2018-01-22T15:38:49.480Z,19.58
2018-01-22T15:41:17.506Z,19.77
2018-01-22T15:43:52.149Z,20.75
2018-01-22T15:46:32.697Z,18.70
2018-01-22T15:49:18.089Z,39.05
2018-01-22T15:51:49.337Z,19.30
2018-01-22T15:54:23.193Z,29.33
2018-01-22T15:56:51.234Z,24.50
2018-01-22T15:59:23.278Z,20.17
2018-01-22T16:01:54.279Z,25.15
2018-01-22T16:04:23.205Z,27.60
2018-01-22T16:07:08.850Z,22.87
2018-01-22T16:09:43.022Z,29.42
2018-01-22T16:12:11.029Z,28.77
2018-01-22T16:14:44.789Z,26.95
2018-01-22T16:17:29.433Z,26.75
2018-01-22T16:20:12.437Z,20.90
2018-01-22T16:22:46.005Z,44.38
2018-01-22T16:25:15.001Z,24.40
2018-01-22T16:27:51.269Z,38.50
2018-01-22T16:30:20.175Z,23.62
2018-01-22T16:32:52.082Z,118.68
2018-01-22T16:35:26.625Z,41.42
2018-01-22T16:38:09.316Z,32.58
2018-01-22T16:40:51.137Z,38.70
2018-01-22T16:43:19.161Z,14.07
2018-01-22T16:45:50.153Z,27.70
2018-01-22T16:48:20.105Z,30.92
2018-01-22T16:50:51.041Z,28.17
2018-01-22T16:53:19.829Z,19.00
2018-01-22T16:56:08.713Z,37.42
2018-01-22T16:58:51.917Z,67.00
2018-01-22T17:01:30.049Z,28.33
2018-01-22T17:06:54.173Z,17.70
2018-01-22T17:09:28.673Z,71.40
2018-01-22T17:11:56.712Z,50.30
2018-01-22T17:14:30.165Z,84.35
2018-01-22T17:16:59.141Z,48.75
2018-01-22T17:19:34.461Z,117.50
2018-01-22T17:22:14.393Z,24.87
2018-01-22T17:24:43.329Z,86.10
2018-01-22T17:27:12.324Z,113.68
2018-01-22T17:29:44.977Z,69.43
2018-01-22T17:32:14.037Z,178.50
2018-01-22T17:34:43.801Z,63.40
2018-01-22T17:37:11.826Z,105.47
2018-01-22T17:39:40.720Z,103.57
2018-01-22T17:42:09.673Z,59.75
2018-01-22T17:44:37.705Z,51.67
2018-01-22T17:47:16.829Z,89.78
2018-01-22T17:49:46.780Z,42.53
2018-01-22T17:52:22.592Z,81.55
2018-01-22T17:54:51.509Z,50.78
2018-01-22T17:57:20.509Z,54.72
2018-01-22T17:59:52.273Z,122.80
2018-01-22T18:02:24.225Z,64.35
2018-01-22T18:04:52.259Z,57.47
2018-01-22T18:07:28.500Z,113.70
2018-01-22T18:10:01.665Z,89.13
2018-01-22T18:12:35.481Z,110.55
2018-01-22T18:15:03.520Z,208.90
2018-01-22T18:17:32.636Z,163.00
2018-01-22T18:20:04.296Z,78.93
2018-01-22T18:22:33.256Z,110.63
2018-01-22T18:25:01.276Z,118.00
2018-01-22T18:27:43.288Z,82.50
2018-01-22T18:30:12.894Z,125.18
2018-01-22T18:32:42.664Z,99.47
2018-01-22T18:35:17.246Z,227.00
2018-01-22T18:37:51.988Z,173.70
2018-01-22T18:40:23.160Z,150.25
2018-01-22T18:42:52.144Z,55.60
2018-01-22T18:45:24.416Z,225.98
2018-01-22T18:47:54.768Z,139.45
2018-01-22T18:50:25.500Z,103.35
2018-01-22T18:53:02.036Z,180.43
2018-01-22T18:55:44.820Z,254.45
2018-01-22T18:58:14.780Z,147.62
2018-01-22T19:00:52.576Z,94.15
2018-01-22T19:03:20.605Z,110.32
2018-01-22T19:05:54.384Z,120.85
2018-01-22T19:08:23.348Z,114.28
2018-01-22T19:10:55.220Z,236.52
2018-01-22T19:13:24.199Z,212.32
2018-01-22T19:15:52.224Z,191.52
2018-01-22T19:18:21.280Z,163.93
2018-01-22T19:20:51.064Z,165.43
2018-01-22T19:23:24.944Z,66.45
2018-01-22T19:25:52.960Z,241.35
2018-01-22T19:28:28.132Z,214.25
2018-01-22T19:30:57.076Z,170.55
2018-01-22T19:33:26.520Z,398.08
2018-01-22T19:35:54.551Z,248.48
2018-01-22T19:38:22.580Z,239.65
2018-01-22T19:40:50.604Z,156.32
2018-01-22T19:43:25.140Z,139.50
2018-01-22T19:45:54.084Z,282.75
2018-01-22T19:48:25.860Z,117.90
2018-01-22T19:51:02.188Z,139.95
2018-01-22T19:53:36.088Z,308.63
2018-01-22T19:56:11.828Z,345.40
2018-01-22T19:58:40.876Z,335.60
2018-01-22T20:01:16.604Z,201.20
2018-01-22T20:03:49.910Z,250.75
2018-01-22T20:06:23.666Z,184.05
2018-01-22T20:09:03.752Z,120.22
2018-01-22T20:11:32.280Z,84.37
2018-01-22T20:14:01.204Z,79.47
2018-01-22T20:16:36.036Z,114.53
2018-01-22T20:19:06.752Z,84.62
2018-01-22T20:21:39.048Z,95.87
2018-01-22T20:24:14.068Z,139.60
2018-01-22T20:29:35.262Z,174.70
2018-01-22T20:32:06.072Z,144.95
2018-01-22T20:34:34.172Z,92.55
2018-01-22T20:37:04.116Z,81.90
2018-01-22T20:39:52.259Z,79.05
2018-01-22T20:42:22.184Z,59.28
2018-01-22T20:44:50.220Z,146.75
2018-01-22T20:47:42.652Z,85.10
2018-01-22T20:50:16.532Z,64.22
2018-01-22T20:52:52.151Z,77.20
2018-01-22T20:55:26.188Z,73.15
2018-01-22T20:58:07.256Z,307.73
2018-01-22T21:00:44.759Z,126.65
2018-01-22T21:03:23.986Z,69.18
2018-01-22T21:11:45.208Z,329.25
2018-01-22T21:14:13.239Z,326.17
2018-01-22T21:16:41.264Z,127.40
2018-01-22T21:19:13.243Z,178.95
2018-01-22T21:21:43.152Z,146.75
2018-01-22T21:24:13.172Z,102.45
2018-01-22T21:26:42.479Z,102.43
2018-01-22T21:29:19.195Z,161.60
2018-01-22T21:31:54.659Z,192.45
2018-01-22T21:34:23.567Z,119.75
2018-01-22T21:36:57.726Z,73.37
2018-01-22T21:39:31.735Z,128.55
2018-01-22T21:42:20.208Z,81.70
2018-01-22T21:44:49.264Z,63.87
2018-01-22T21:47:17.253Z,82.78
2018-01-22T21:49:56.300Z,58.15
2018-01-22T21:52:26.980Z,74.10
2018-01-22T21:54:58.876Z,125.18
2018-01-22T21:57:27.808Z,74.55
2018-01-22T21:59:56.808Z,136.05
2018-01-22T22:02:30.403Z,238.12
2018-01-22T22:04:59.399Z,158.65
2018-01-22T22:07:31.286Z,176.00
2018-01-22T22:10:01.068Z,305.33
2018-01-22T22:12:36.400Z,233.23
2018-01-22T22:15:24.707Z,136.02
2018-01-22T22:18:04.263Z,137.55
2018-01-22T22:20:44.928Z,75.93
2018-01-22T22:23:30.407Z,107.53
2018-01-22T22:26:04.519Z,101.95
2018-01-22T22:28:52.060Z,129.25
2018-01-22T22:31:22.155Z,111.15
2018-01-22T22:33:50.215Z,101.45
2018-01-22T22:36:24.643Z,89.53
2018-01-22T22:38:54.610Z,66.50
2018-01-22T22:41:26.651Z,54.85
2018-01-22T22:43:59.363Z,65.37
2018-01-22T22:46:34.951Z,71.57
2018-01-22T22:49:11.015Z,66.12
2018-01-22T22:51:39.062Z,59.00
2018-01-22T22:54:07.079Z,67.18
2018-01-22T22:56:41.783Z,64.90
2018-01-22T22:59:15.683Z,47.08
2018-01-22T23:01:55.547Z,51.00
2018-01-22T23:04:31.622Z,59.53
2018-01-22T23:07:00.606Z,52.45
2018-01-22T23:09:30.631Z,61.55
2018-01-22T23:12:11.435Z,63.53
2018-01-22T23:14:52.507Z,46.65
2018-01-22T23:17:27.395Z,50.83
2018-01-22T23:20:06.363Z,45.45
2018-01-22T23:22:35.843Z,53.15
2018-01-22T23:25:06.539Z,55.10
2018-01-22T23:27:37.426Z,52.78
2018-01-22T23:30:10.931Z,57.45
2018-01-22T23:32:39.030Z,51.40
2018-01-22T23:35:14.183Z,52.60
2018-01-22T23:37:47.067Z,48.92
2018-01-22T23:46:05.786Z,43.40
2018-01-22T23:48:53.586Z,40.47
2018-01-22T23:51:23.527Z,44.80
2018-01-22T23:54:02.930Z,47.80
2018-01-22T23:56:34.115Z,47.97
